sensor_id;sensor_type;location;lat;lon;timestamp;P1;durP1;ratioP1;P2;durP2;ratioP2
72235;SDS011;60146;52.498;13.462;2023-09-30T00:02:16;2.37;;;1.00;;
72235;SDS011;60146;52.498;13.462;2023-09-30T00:04:41;3.43;;;0.83;;
72235;SDS011;60146;52.498;13.462;2023-09-30T00:07:06;4.40;;;0.90;;
72235;SDS011;60146;52.498;13.462;2023-09-30T00:09:32;3.20;;;0.90;;
72235;SDS011;60146;52.498;13.462;2023-09-30T00:11:58;5.07;;;1.00;;
72235;SDS011;60146;52.498;13.462;2023-09-30T00:14:24;3.67;;;0.97;;
72235;SDS011;60146;52.498;13.462;2023-09-30T00:16:50;3.27;;;1.20;;
72235;SDS011;60146;52.498;13.462;2023-09-30T00:19:15;4.00;;;1.37;;
72235;SDS011;60146;52.498;13.462;2023-09-30T00:21:41;3.93;;;1.63;;
72235;SDS011;60146;52.498;13.462;2023-09-30T00:24:06;5.63;;;1.30;;
72235;SDS011;60146;52.498;13.462;2023-09-30T00:26:31;5.00;;;1.30;;
72235;SDS011;60146;52.498;13.462;2023-09-30T00:28:57;5.87;;;1.50;;
72235;SDS011;60146;52.498;13.462;2023-09-30T00:31:22;4.00;;;1.20;;
72235;SDS011;60146;52.498;13.462;2023-09-30T00:33:48;9.33;;;1.53;;
72235;SDS011;60146;52.498;13.462;2023-09-30T00:36:13;5.13;;;1.30;;
72235;SDS011;60146;52.498;13.462;2023-09-30T00:38:39;5.53;;;1.40;;
72235;SDS011;60146;52.498;13.462;2023-09-30T00:41:05;5.57;;;1.50;;
72235;SDS011;60146;52.498;13.462;2023-09-30T00:43:32;6.37;;;1.60;;
72235;SDS011;60146;52.498;13.462;2023-09-30T00:48:50;8.90;;;1.73;;
72235;SDS011;60146;52.498;13.462;2023-09-30T00:51:17;5.33;;;1.50;;
72235;SDS011;60146;52.498;13.462;2023-09-30T00:53:43;5.13;;;1.27;;
72235;SDS011;60146;52.498;13.462;2023-09-30T00:56:08;3.97;;;1.40;;
72235;SDS011;60146;52.498;13.462;2023-09-30T00:58:35;11.20;;;1.60;;
72235;SDS011;60146;52.498;13.462;2023-09-30T01:01:00;7.47;;;1.53;;
72235;SDS011;60146;52.498;13.462;2023-09-30T01:03:26;7.90;;;1.60;;
72235;SDS011;60146;52.498;13.462;2023-09-30T01:05:51;4.57;;;1.40;;
72235;SDS011;60146;52.498;13.462;2023-09-30T01:08:18;7.27;;;1.57;;
72235;SDS011;60146;52.498;13.462;2023-09-30T01:10:45;6.93;;;1.40;;
72235;SDS011;60146;52.498;13.462;2023-09-30T01:13:10;6.83;;;1.47;;
72235;SDS011;60146;52.498;13.462;2023-09-30T01:15:36;6.43;;;1.63;;
72235;SDS011;60146;52.498;13.462;2023-09-30T01:18:02;5.37;;;1.43;;
72235;SDS011;60146;52.498;13.462;2023-09-30T01:20:28;5.43;;;1.57;;
72235;SDS011;60146;52.498;13.462;2023-09-30T01:22:53;4.53;;;1.30;;
72235;SDS011;60146;52.498;13.462;2023-09-30T01:25:21;6.20;;;1.67;;
72235;SDS011;60146;52.498;13.462;2023-09-30T01:27:46;6.83;;;1.50;;
72235;SDS011;60146;52.498;13.462;2023-09-30T01:30:12;6.20;;;1.60;;
72235;SDS011;60146;52.498;13.462;2023-09-30T01:32:38;6.90;;;1.50;;
72235;SDS011;60146;52.498;13.462;2023-09-30T01:35:04;7.73;;;1.63;;
72235;SDS011;60146;52.498;13.462;2023-09-30T01:37:30;6.83;;;1.77;;
72235;SDS011;60146;52.498;13.462;2023-09-30T01:39:55;5.57;;;1.33;;
72235;SDS011;60146;52.498;13.462;2023-09-30T01:42:21;9.10;;;1.70;;
72235;SDS011;60146;52.498;13.462;2023-09-30T01:44:46;8.07;;;1.60;;
72235;SDS011;60146;52.498;13.462;2023-09-30T01:47:12;5.97;;;1.83;;
72235;SDS011;60146;52.498;13.462;2023-09-30T01:49:37;7.80;;;1.50;;
72235;SDS011;60146;52.498;13.462;2023-09-30T01:52:03;6.30;;;1.50;;
72235;SDS011;60146;52.498;13.462;2023-09-30T01:54:29;6.33;;;1.40;;
72235;SDS011;60146;52.498;13.462;2023-09-30T01:56:55;11.63;;;1.83;;
72235;SDS011;60146;52.498;13.462;2023-09-30T01:59:20;9.07;;;1.40;;
72235;SDS011;60146;52.498;13.462;2023-09-30T02:01:46;7.53;;;1.77;;
72235;SDS011;60146;52.498;13.462;2023-09-30T02:04:12;9.30;;;2.37;;
72235;SDS011;60146;52.498;13.462;2023-09-30T02:06:40;13.97;;;2.10;;
72235;SDS011;60146;52.498;13.462;2023-09-30T02:09:05;7.40;;;1.60;;
72235;SDS011;60146;52.498;13.462;2023-09-30T02:11:33;7.60;;;1.90;;
72235;SDS011;60146;52.498;13.462;2023-09-30T02:13:59;6.63;;;1.50;;
72235;SDS011;60146;52.498;13.462;2023-09-30T02:16:24;7.57;;;1.70;;
72235;SDS011;60146;52.498;13.462;2023-09-30T02:18:49;9.63;;;1.73;;
72235;SDS011;60146;52.498;13.462;2023-09-30T02:21:15;7.53;;;2.00;;
72235;SDS011;60146;52.498;13.462;2023-09-30T02:23:41;6.37;;;1.70;;
72235;SDS011;60146;52.498;13.462;2023-09-30T02:26:06;6.20;;;1.50;;
72235;SDS011;60146;52.498;13.462;2023-09-30T02:28:32;7.10;;;1.70;;
72235;SDS011;60146;52.498;13.462;2023-09-30T02:30:59;9.50;;;1.70;;
72235;SDS011;60146;52.498;13.462;2023-09-30T02:33:25;9.53;;;1.87;;
72235;SDS011;60146;52.498;13.462;2023-09-30T02:35:51;7.60;;;1.70;;
72235;SDS011;60146;52.498;13.462;2023-09-30T02:38:16;13.03;;;1.63;;
72235;SDS011;60146;52.498;13.462;2023-09-30T02:40:42;9.07;;;1.90;;
72235;SDS011;60146;52.498;13.462;2023-09-30T02:43:11;11.47;;;1.80;;
72235;SDS011;60146;52.498;13.462;2023-09-30T02:45:37;11.17;;;1.73;;
72235;SDS011;60146;52.498;13.462;2023-09-30T02:48:03;7.17;;;1.90;;
72235;SDS011;60146;52.498;13.462;2023-09-30T02:50:29;10.17;;;1.60;;
72235;SDS011;60146;52.498;13.462;2023-09-30T02:52:54;9.57;;;2.37;;
72235;SDS011;60146;52.498;13.462;2023-09-30T02:55:20;8.03;;;1.53;;
72235;SDS011;60146;52.498;13.462;2023-09-30T02:57:45;7.83;;;1.90;;
72235;SDS011;60146;52.498;13.462;2023-09-30T03:00:11;7.80;;;1.97;;
72235;SDS011;60146;52.498;13.462;2023-09-30T03:02:51;8.50;;;2.00;;
72235;SDS011;60146;52.498;13.462;2023-09-30T03:05:18;10.60;;;1.52;;
72235;SDS011;60146;52.498;13.462;2023-09-30T03:07:44;12.33;;;2.30;;
72235;SDS011;60146;52.498;13.462;2023-09-30T03:10:10;6.37;;;1.60;;
72235;SDS011;60146;52.498;13.462;2023-09-30T03:12:37;8.10;;;2.13;;
72235;SDS011;60146;52.498;13.462;2023-09-30T03:15:03;9.93;;;1.90;;
72235;SDS011;60146;52.498;13.462;2023-09-30T03:17:33;11.50;;;1.83;;
72235;SDS011;60146;52.498;13.462;2023-09-30T03:19:58;12.03;;;2.10;;
72235;SDS011;60146;52.498;13.462;2023-09-30T03:22:24;9.47;;;1.90;;
72235;SDS011;60146;52.498;13.462;2023-09-30T03:24:52;10.80;;;1.90;;
72235;SDS011;60146;52.498;13.462;2023-09-30T03:27:19;9.40;;;2.00;;
72235;SDS011;60146;52.498;13.462;2023-09-30T03:29:45;8.40;;;2.00;;
72235;SDS011;60146;52.498;13.462;2023-09-30T03:32:11;8.33;;;1.70;;
72235;SDS011;60146;52.498;13.462;2023-09-30T03:34:36;12.63;;;1.97;;
72235;SDS011;60146;52.498;13.462;2023-09-30T03:37:01;10.03;;;1.90;;
72235;SDS011;60146;52.498;13.462;2023-09-30T03:39:27;9.27;;;1.70;;
72235;SDS011;60146;52.498;13.462;2023-09-30T03:41:56;6.10;;;1.77;;
72235;SDS011;60146;52.498;13.462;2023-09-30T03:46:48;10.67;;;2.40;;
72235;SDS011;60146;52.498;13.462;2023-09-30T03:49:15;10.07;;;2.00;;
72235;SDS011;60146;52.498;13.462;2023-09-30T03:51:40;9.07;;;2.00;;
72235;SDS011;60146;52.498;13.462;2023-09-30T03:54:06;11.63;;;2.40;;
72235;SDS011;60146;52.498;13.462;2023-09-30T03:56:31;10.17;;;2.23;;
72235;SDS011;60146;52.498;13.462;2023-09-30T03:58:57;12.13;;;2.43;;
72235;SDS011;60146;52.498;13.462;2023-09-30T04:01:22;11.13;;;2.83;;
72235;SDS011;60146;52.498;13.462;2023-09-30T04:03:48;9.30;;;1.93;;
72235;SDS011;60146;52.498;13.462;2023-09-30T04:06:14;8.03;;;1.77;;
72235;SDS011;60146;52.498;13.462;2023-09-30T04:08:39;8.17;;;2.40;;
72235;SDS011;60146;52.498;13.462;2023-09-30T04:11:05;12.37;;;2.40;;
72235;SDS011;60146;52.498;13.462;2023-09-30T04:13:31;14.83;;;1.90;;
72235;SDS011;60146;52.498;13.462;2023-09-30T04:15:56;8.43;;;2.43;;
72235;SDS011;60146;52.498;13.462;2023-09-30T04:18:24;13.00;;;2.33;;
72235;SDS011;60146;52.498;13.462;2023-09-30T04:20:51;9.80;;;2.23;;
72235;SDS011;60146;52.498;13.462;2023-09-30T04:23:17;10.53;;;2.10;;
72235;SDS011;60146;52.498;13.462;2023-09-30T04:25:45;7.87;;;3.37;;
72235;SDS011;60146;52.498;13.462;2023-09-30T04:28:11;9.07;;;1.90;;
72235;SDS011;60146;52.498;13.462;2023-09-30T04:30:38;13.43;;;2.57;;
72235;SDS011;60146;52.498;13.462;2023-09-30T04:33:03;8.03;;;2.20;;
72235;SDS011;60146;52.498;13.462;2023-09-30T04:35:33;10.33;;;2.20;;
72235;SDS011;60146;52.498;13.462;2023-09-30T04:38:00;11.63;;;2.30;;
72235;SDS011;60146;52.498;13.462;2023-09-30T04:40:29;9.25;;;2.33;;
72235;SDS011;60146;52.498;13.462;2023-09-30T04:42:55;8.43;;;2.20;;
72235;SDS011;60146;52.498;13.462;2023-09-30T04:45:23;8.13;;;2.13;;
72235;SDS011;60146;52.498;13.462;2023-09-30T04:47:51;10.77;;;2.30;;
72235;SDS011;60146;52.498;13.462;2023-09-30T04:50:17;9.70;;;2.23;;
72235;SDS011;60146;52.498;13.462;2023-09-30T04:52:43;9.07;;;2.20;;
72235;SDS011;60146;52.498;13.462;2023-09-30T04:55:10;9.67;;;2.20;;
72235;SDS011;60146;52.498;13.462;2023-09-30T04:57:37;12.33;;;2.30;;
72235;SDS011;60146;52.498;13.462;2023-09-30T05:00:03;13.30;;;2.27;;
72235;SDS011;60146;52.498;13.462;2023-09-30T05:02:35;10.67;;;2.23;;
72235;SDS011;60146;52.498;13.462;2023-09-30T05:05:01;10.60;;;2.07;;
72235;SDS011;60146;52.498;13.462;2023-09-30T05:07:27;11.90;;;2.50;;
72235;SDS011;60146;52.498;13.462;2023-09-30T05:09:54;13.63;;;1.93;;
72235;SDS011;60146;52.498;13.462;2023-09-30T05:12:19;8.13;;;2.07;;
72235;SDS011;60146;52.498;13.462;2023-09-30T05:14:45;12.83;;;2.77;;
72235;SDS011;60146;52.498;13.462;2023-09-30T05:17:10;7.00;;;2.00;;
72235;SDS011;60146;52.498;13.462;2023-09-30T05:19:38;15.93;;;2.53;;
72235;SDS011;60146;52.498;13.462;2023-09-30T05:22:03;10.33;;;2.20;;
72235;SDS011;60146;52.498;13.462;2023-09-30T05:24:30;8.97;;;2.23;;
72235;SDS011;60146;52.498;13.462;2023-09-30T05:26:56;8.63;;;2.10;;
72235;SDS011;60146;52.498;13.462;2023-09-30T05:29:21;11.43;;;2.27;;
72235;SDS011;60146;52.498;13.462;2023-09-30T05:31:47;6.87;;;1.87;;
72235;SDS011;60146;52.498;13.462;2023-09-30T05:34:13;7.23;;;2.00;;
72235;SDS011;60146;52.498;13.462;2023-09-30T05:36:38;7.93;;;2.30;;
72235;SDS011;60146;52.498;13.462;2023-09-30T05:39:04;10.20;;;1.97;;
72235;SDS011;60146;52.498;13.462;2023-09-30T05:41:30;11.07;;;2.43;;
72235;SDS011;60146;52.498;13.462;2023-09-30T05:43:56;8.73;;;2.20;;
72235;SDS011;60146;52.498;13.462;2023-09-30T05:46:21;11.20;;;2.20;;
72235;SDS011;60146;52.498;13.462;2023-09-30T05:48:47;12.90;;;3.37;;
72235;SDS011;60146;52.498;13.462;2023-09-30T05:51:12;8.40;;;2.00;;
72235;SDS011;60146;52.498;13.462;2023-09-30T05:53:40;7.80;;;2.10;;
72235;SDS011;60146;52.498;13.462;2023-09-30T05:56:06;11.73;;;2.43;;
72235;SDS011;60146;52.498;13.462;2023-09-30T05:58:32;10.03;;;2.63;;
72235;SDS011;60146;52.498;13.462;2023-09-30T06:00:58;13.23;;;1.97;;
72235;SDS011;60146;52.498;13.462;2023-09-30T06:03:25;9.77;;;2.13;;
72235;SDS011;60146;52.498;13.462;2023-09-30T06:05:54;16.67;;;2.40;;
72235;SDS011;60146;52.498;13.462;2023-09-30T06:08:21;11.20;;;2.20;;
72235;SDS011;60146;52.498;13.462;2023-09-30T06:10:46;10.70;;;1.97;;
72235;SDS011;60146;52.498;13.462;2023-09-30T06:13:12;9.73;;;2.80;;
72235;SDS011;60146;52.498;13.462;2023-09-30T06:15:38;16.67;;;2.00;;
72235;SDS011;60146;52.498;13.462;2023-09-30T06:18:05;12.90;;;2.17;;
72235;SDS011;60146;52.498;13.462;2023-09-30T06:20:31;8.40;;;1.90;;
72235;SDS011;60146;52.498;13.462;2023-09-30T06:22:56;8.07;;;2.13;;
72235;SDS011;60146;52.498;13.462;2023-09-30T06:25:22;12.13;;;2.33;;
72235;SDS011;60146;52.498;13.462;2023-09-30T06:27:49;13.03;;;2.87;;
72235;SDS011;60146;52.498;13.462;2023-09-30T06:30:15;7.63;;;2.20;;
72235;SDS011;60146;52.498;13.462;2023-09-30T06:32:41;9.40;;;2.27;;
72235;SDS011;60146;52.498;13.462;2023-09-30T06:35:07;8.60;;;2.13;;
72235;SDS011;60146;52.498;13.462;2023-09-30T06:37:35;10.17;;;2.50;;
72235;SDS011;60146;52.498;13.462;2023-09-30T06:40:02;10.60;;;2.40;;
72235;SDS011;60146;52.498;13.462;2023-09-30T06:42:30;10.20;;;1.80;;
72235;SDS011;60146;52.498;13.462;2023-09-30T06:44:56;11.10;;;2.27;;
72235;SDS011;60146;52.498;13.462;2023-09-30T06:47:22;9.40;;;1.93;;
72235;SDS011;60146;52.498;13.462;2023-09-30T06:49:49;10.63;;;2.30;;
72235;SDS011;60146;52.498;13.462;2023-09-30T06:52:14;7.87;;;2.10;;
72235;SDS011;60146;52.498;13.462;2023-09-30T06:54:40;11.27;;;2.10;;
72235;SDS011;60146;52.498;13.462;2023-09-30T06:57:05;10.17;;;2.13;;
72235;SDS011;60146;52.498;13.462;2023-09-30T06:59:32;11.40;;;1.87;;
72235;SDS011;60146;52.498;13.462;2023-09-30T07:01:57;9.50;;;2.00;;
72235;SDS011;60146;52.498;13.462;2023-09-30T07:04:22;6.60;;;2.17;;
72235;SDS011;60146;52.498;13.462;2023-09-30T07:06:48;9.07;;;1.80;;
72235;SDS011;60146;52.498;13.462;2023-09-30T07:09:13;11.53;;;2.13;;
72235;SDS011;60146;52.498;13.462;2023-09-30T07:11:38;6.43;;;1.73;;
72235;SDS011;60146;52.498;13.462;2023-09-30T07:14:04;8.50;;;2.30;;
72235;SDS011;60146;52.498;13.462;2023-09-30T07:16:29;10.03;;;2.30;;
72235;SDS011;60146;52.498;13.462;2023-09-30T07:18:55;8.00;;;2.00;;
72235;SDS011;60146;52.498;13.462;2023-09-30T07:21:20;7.97;;;1.80;;
72235;SDS011;60146;52.498;13.462;2023-09-30T07:23:46;7.43;;;1.90;;
72235;SDS011;60146;52.498;13.462;2023-09-30T07:26:13;7.73;;;1.70;;
72235;SDS011;60146;52.498;13.462;2023-09-30T07:28:40;8.90;;;2.00;;
72235;SDS011;60146;52.498;13.462;2023-09-30T07:31:06;12.70;;;2.00;;
72235;SDS011;60146;52.498;13.462;2023-09-30T07:33:31;9.47;;;2.20;;
72235;SDS011;60146;52.498;13.462;2023-09-30T07:35:57;8.07;;;2.00;;
72235;SDS011;60146;52.498;13.462;2023-09-30T07:38:22;10.20;;;1.93;;
72235;SDS011;60146;52.498;13.462;2023-09-30T07:40:47;10.20;;;2.00;;
72235;SDS011;60146;52.498;13.462;2023-09-30T07:43:14;10.33;;;1.87;;
72235;SDS011;60146;52.498;13.462;2023-09-30T07:45:40;6.17;;;1.70;;
72235;SDS011;60146;52.498;13.462;2023-09-30T07:48:06;6.70;;;2.20;;
72235;SDS011;60146;52.498;13.462;2023-09-30T07:50:34;9.93;;;1.73;;
72235;SDS011;60146;52.498;13.462;2023-09-30T07:53:00;9.43;;;2.03;;
72235;SDS011;60146;52.498;13.462;2023-09-30T07:55:25;10.10;;;2.10;;
72235;SDS011;60146;52.498;13.462;2023-09-30T07:57:51;9.83;;;1.80;;
72235;SDS011;60146;52.498;13.462;2023-09-30T08:00:16;8.90;;;1.90;;
72235;SDS011;60146;52.498;13.462;2023-09-30T08:02:42;11.17;;;1.90;;
72235;SDS011;60146;52.498;13.462;2023-09-30T08:05:08;9.17;;;2.00;;
72235;SDS011;60146;52.498;13.462;2023-09-30T08:07:35;11.50;;;2.00;;
72235;SDS011;60146;52.498;13.462;2023-09-30T08:10:01;9.27;;;1.80;;
72235;SDS011;60146;52.498;13.462;2023-09-30T08:12:31;9.73;;;2.00;;
72235;SDS011;60146;52.498;13.462;2023-09-30T08:14:57;10.13;;;2.77;;
72235;SDS011;60146;52.498;13.462;2023-09-30T08:17:23;6.30;;;1.60;;
72235;SDS011;60146;52.498;13.462;2023-09-30T08:19:48;6.27;;;2.03;;
72235;SDS011;60146;52.498;13.462;2023-09-30T08:22:13;8.03;;;2.00;;
72235;SDS011;60146;52.498;13.462;2023-09-30T08:24:39;9.67;;;1.77;;
72235;SDS011;60146;52.498;13.462;2023-09-30T08:27:05;10.80;;;2.10;;
72235;SDS011;60146;52.498;13.462;2023-09-30T08:29:33;7.20;;;1.70;;
72235;SDS011;60146;52.498;13.462;2023-09-30T08:32:01;9.15;;;1.70;;
72235;SDS011;60146;52.498;13.462;2023-09-30T08:34:27;12.95;;;2.42;;
72235;SDS011;60146;52.498;13.462;2023-09-30T08:36:53;9.73;;;2.33;;
72235;SDS011;60146;52.498;13.462;2023-09-30T08:39:19;7.90;;;1.50;;
72235;SDS011;60146;52.498;13.462;2023-09-30T08:41:44;9.00;;;1.65;;
72235;SDS011;60146;52.498;13.462;2023-09-30T08:44:10;5.55;;;1.60;;
72235;SDS011;60146;52.498;13.462;2023-09-30T08:46:36;20.10;;;2.63;;
72235;SDS011;60146;52.498;13.462;2023-09-30T08:49:03;9.52;;;1.80;;
72235;SDS011;60146;52.498;13.462;2023-09-30T08:51:29;6.43;;;1.85;;
72235;SDS011;60146;52.498;13.462;2023-09-30T08:53:56;9.45;;;1.60;;
72235;SDS011;60146;52.498;13.462;2023-09-30T08:56:24;10.00;;;2.15;;
72235;SDS011;60146;52.498;13.462;2023-09-30T08:58:51;7.80;;;2.10;;
72235;SDS011;60146;52.498;13.462;2023-09-30T09:01:19;7.47;;;1.90;;
72235;SDS011;60146;52.498;13.462;2023-09-30T09:03:45;8.05;;;1.67;;
72235;SDS011;60146;52.498;13.462;2023-09-30T09:06:17;7.63;;;1.77;;
72235;SDS011;60146;52.498;13.462;2023-09-30T09:08:43;11.18;;;2.17;;
72235;SDS011;60146;52.498;13.462;2023-09-30T09:11:08;12.48;;;2.05;;
72235;SDS011;60146;52.498;13.462;2023-09-30T09:13:47;11.73;;;2.17;;
72235;SDS011;60146;52.498;13.462;2023-09-30T09:16:20;7.05;;;1.88;;
72235;SDS011;60146;52.498;13.462;2023-09-30T09:18:46;7.72;;;1.90;;
72235;SDS011;60146;52.498;13.462;2023-09-30T09:21:19;7.90;;;1.90;;
72235;SDS011;60146;52.498;13.462;2023-09-30T09:23:47;9.68;;;1.98;;
72235;SDS011;60146;52.498;13.462;2023-09-30T09:26:25;8.90;;;1.73;;
72235;SDS011;60146;52.498;13.462;2023-09-30T09:28:59;8.63;;;1.70;;
72235;SDS011;60146;52.498;13.462;2023-09-30T09:31:30;5.53;;;1.73;;
72235;SDS011;60146;52.498;13.462;2023-09-30T09:33:57;8.60;;;2.20;;
72235;SDS011;60146;52.498;13.462;2023-09-30T09:39:30;8.35;;;1.58;;
72235;SDS011;60146;52.498;13.462;2023-09-30T09:41:59;6.40;;;1.67;;
72235;SDS011;60146;52.498;13.462;2023-09-30T09:44:26;6.78;;;1.63;;
72235;SDS011;60146;52.498;13.462;2023-09-30T09:46:52;8.50;;;1.58;;
72235;SDS011;60146;52.498;13.462;2023-09-30T09:49:18;7.15;;;1.92;;
72235;SDS011;60146;52.498;13.462;2023-09-30T09:51:45;7.00;;;1.55;;
72235;SDS011;60146;52.498;13.462;2023-09-30T09:54:12;7.15;;;1.70;;
72235;SDS011;60146;52.498;13.462;2023-09-30T09:56:38;7.80;;;1.88;;
72235;SDS011;60146;52.498;13.462;2023-09-30T09:59:04;11.82;;;1.90;;
72235;SDS011;60146;52.498;13.462;2023-09-30T10:01:31;6.88;;;1.65;;
72235;SDS011;60146;52.498;13.462;2023-09-30T10:03:58;8.13;;;1.55;;
72235;SDS011;60146;52.498;13.462;2023-09-30T10:06:24;8.40;;;1.77;;
72235;SDS011;60146;52.498;13.462;2023-09-30T10:08:49;7.53;;;1.80;;
72235;SDS011;60146;52.498;13.462;2023-09-30T10:11:17;9.05;;;2.00;;
72235;SDS011;60146;52.498;13.462;2023-09-30T10:13:55;8.52;;;2.00;;
72235;SDS011;60146;52.498;13.462;2023-09-30T10:19:09;7.80;;;1.92;;
72235;SDS011;60146;52.498;13.462;2023-09-30T10:21:36;6.38;;;1.90;;
72235;SDS011;60146;52.498;13.462;2023-09-30T10:30:17;6.60;;;1.80;;
72235;SDS011;60146;52.498;13.462;2023-09-30T10:40:46;3.60;;;1.20;;
72235;SDS011;60146;52.498;13.462;2023-09-30T10:45:56;5.10;;;1.48;;
72235;SDS011;60146;52.498;13.462;2023-09-30T10:50:57;3.80;;;1.35;;
72235;SDS011;60146;52.498;13.462;2023-09-30T10:53:51;6.28;;;1.35;;
72235;SDS011;60146;52.498;13.462;2023-09-30T10:56:21;6.63;;;1.25;;
72235;SDS011;60146;52.498;13.462;2023-09-30T10:58:47;5.75;;;1.48;;
72235;SDS011;60146;52.498;13.462;2023-09-30T11:01:15;5.38;;;1.42;;
72235;SDS011;60146;52.498;13.462;2023-09-30T11:03:47;6.75;;;1.70;;
72235;SDS011;60146;52.498;13.462;2023-09-30T11:06:17;6.55;;;1.40;;
72235;SDS011;60146;52.498;13.462;2023-09-30T11:08:52;5.15;;;1.40;;
72235;SDS011;60146;52.498;13.462;2023-09-30T11:11:31;6.28;;;1.50;;
72235;SDS011;60146;52.498;13.462;2023-09-30T11:14:00;5.10;;;1.80;;
72235;SDS011;60146;52.498;13.462;2023-09-30T11:16:25;5.63;;;1.50;;
72235;SDS011;60146;52.498;13.462;2023-09-30T11:18:54;4.05;;;1.45;;
72235;SDS011;60146;52.498;13.462;2023-09-30T11:21:20;5.35;;;1.48;;
72235;SDS011;60146;52.498;13.462;2023-09-30T11:23:47;5.45;;;1.50;;
72235;SDS011;60146;52.498;13.462;2023-09-30T11:26:12;6.90;;;1.73;;
72235;SDS011;60146;52.498;13.462;2023-09-30T11:28:43;8.20;;;1.70;;
72235;SDS011;60146;52.498;13.462;2023-09-30T11:31:13;6.35;;;1.60;;
72235;SDS011;60146;52.498;13.462;2023-09-30T11:33:53;7.15;;;1.65;;
72235;SDS011;60146;52.498;13.462;2023-09-30T11:36:21;4.88;;;1.73;;
72235;SDS011;60146;52.498;13.462;2023-09-30T11:38:48;4.78;;;1.50;;
72235;SDS011;60146;52.498;13.462;2023-09-30T11:41:14;6.63;;;1.23;;
72235;SDS011;60146;52.498;13.462;2023-09-30T11:43:57;7.50;;;1.70;;
72235;SDS011;60146;52.498;13.462;2023-09-30T11:46:25;6.70;;;1.58;;
72235;SDS011;60146;52.498;13.462;2023-09-30T11:48:56;5.80;;;1.50;;
72235;SDS011;60146;52.498;13.462;2023-09-30T11:51:24;3.72;;;1.33;;
72235;SDS011;60146;52.498;13.462;2023-09-30T11:53:51;6.32;;;1.80;;
72235;SDS011;60146;52.498;13.462;2023-09-30T11:56:18;5.45;;;1.67;;
72235;SDS011;60146;52.498;13.462;2023-09-30T11:58:44;4.63;;;1.42;;
72235;SDS011;60146;52.498;13.462;2023-09-30T12:01:11;6.88;;;1.67;;
72235;SDS011;60146;52.498;13.462;2023-09-30T12:03:38;4.85;;;1.30;;
72235;SDS011;60146;52.498;13.462;2023-09-30T12:06:05;4.43;;;1.42;;
72235;SDS011;60146;52.498;13.462;2023-09-30T12:08:31;6.97;;;1.23;;
72235;SDS011;60146;52.498;13.462;2023-09-30T12:10:57;7.43;;;1.70;;
72235;SDS011;60146;52.498;13.462;2023-09-30T12:13:24;6.00;;;1.30;;
72235;SDS011;60146;52.498;13.462;2023-09-30T12:15:50;5.45;;;1.33;;
72235;SDS011;60146;52.498;13.462;2023-09-30T12:18:18;5.00;;;1.42;;
72235;SDS011;60146;52.498;13.462;2023-09-30T12:20:48;8.40;;;1.70;;
72235;SDS011;60146;52.498;13.462;2023-09-30T12:23:14;4.53;;;1.30;;
72235;SDS011;60146;52.498;13.462;2023-09-30T12:25:40;5.50;;;1.23;;
72235;SDS011;60146;52.498;13.462;2023-09-30T12:28:09;5.18;;;1.30;;
72235;SDS011;60146;52.498;13.462;2023-09-30T12:33:23;6.93;;;1.85;;
72235;SDS011;60146;52.498;13.462;2023-09-30T12:35:49;6.20;;;1.30;;
72235;SDS011;60146;52.498;13.462;2023-09-30T12:38:14;4.57;;;1.33;;
72235;SDS011;60146;52.498;13.462;2023-09-30T12:40:41;4.93;;;1.55;;
72235;SDS011;60146;52.498;13.462;2023-09-30T12:43:08;6.72;;;1.63;;
72235;SDS011;60146;52.498;13.462;2023-09-30T12:45:34;5.63;;;1.48;;
72235;SDS011;60146;52.498;13.462;2023-09-30T12:48:02;5.03;;;1.30;;
72235;SDS011;60146;52.498;13.462;2023-09-30T12:50:28;3.58;;;1.17;;
72235;SDS011;60146;52.498;13.462;2023-09-30T12:52:56;3.25;;;1.23;;
72235;SDS011;60146;52.498;13.462;2023-09-30T12:55:25;3.60;;;0.95;;
72235;SDS011;60146;52.498;13.462;2023-09-30T12:57:52;5.95;;;1.25;;
72235;SDS011;60146;52.498;13.462;2023-09-30T13:00:18;4.90;;;1.15;;
72235;SDS011;60146;52.498;13.462;2023-09-30T13:02:44;6.93;;;1.20;;
72235;SDS011;60146;52.498;13.462;2023-09-30T13:05:09;5.85;;;1.42;;
72235;SDS011;60146;52.498;13.462;2023-09-30T13:07:35;4.97;;;1.42;;
72235;SDS011;60146;52.498;13.462;2023-09-30T13:10:00;6.80;;;1.15;;
72235;SDS011;60146;52.498;13.462;2023-09-30T13:12:26;3.47;;;1.30;;
72235;SDS011;60146;52.498;13.462;2023-09-30T13:14:52;4.68;;;0.95;;
72235;SDS011;60146;52.498;13.462;2023-09-30T13:17:21;4.22;;;1.00;;
72235;SDS011;60146;52.498;13.462;2023-09-30T13:19:47;6.05;;;1.30;;
72235;SDS011;60146;52.498;13.462;2023-09-30T13:22:12;4.88;;;1.08;;
72235;SDS011;60146;52.498;13.462;2023-09-30T13:24:38;4.95;;;1.13;;
72235;SDS011;60146;52.498;13.462;2023-09-30T13:27:04;4.13;;;1.20;;
72235;SDS011;60146;52.498;13.462;2023-09-30T13:29:30;4.88;;;1.40;;
72235;SDS011;60146;52.498;13.462;2023-09-30T13:31:55;4.53;;;1.27;;
72235;SDS011;60146;52.498;13.462;2023-09-30T13:34:21;3.40;;;1.08;;
72235;SDS011;60146;52.498;13.462;2023-09-30T13:36:46;4.38;;;1.40;;
72235;SDS011;60146;52.498;13.462;2023-09-30T13:39:11;6.60;;;1.10;;
72235;SDS011;60146;52.498;13.462;2023-09-30T13:41:38;6.82;;;2.15;;
72235;SDS011;60146;52.498;13.462;2023-09-30T13:44:05;3.88;;;1.00;;
72235;SDS011;60146;52.498;13.462;2023-09-30T13:46:30;4.57;;;1.02;;
72235;SDS011;60146;52.498;13.462;2023-09-30T13:48:56;3.75;;;1.00;;
72235;SDS011;60146;52.498;13.462;2023-09-30T13:51:21;3.75;;;1.13;;
72235;SDS011;60146;52.498;13.462;2023-09-30T13:53:47;3.47;;;1.02;;
72235;SDS011;60146;52.498;13.462;2023-09-30T13:56:13;12.77;;;1.60;;
72235;SDS011;60146;52.498;13.462;2023-09-30T13:58:38;5.50;;;1.30;;
72235;SDS011;60146;52.498;13.462;2023-09-30T14:01:04;4.57;;;1.27;;
72235;SDS011;60146;52.498;13.462;2023-09-30T14:03:29;6.28;;;1.15;;
72235;SDS011;60146;52.498;13.462;2023-09-30T14:05:55;5.25;;;0.88;;
72235;SDS011;60146;52.498;13.462;2023-09-30T14:08:22;4.05;;;0.95;;
72235;SDS011;60146;52.498;13.462;2023-09-30T14:10:47;5.15;;;0.80;;
72235;SDS011;60146;52.498;13.462;2023-09-30T14:13:13;8.70;;;1.35;;
72235;SDS011;60146;52.498;13.462;2023-09-30T14:15:40;5.88;;;1.48;;
72235;SDS011;60146;52.498;13.462;2023-09-30T14:18:05;5.00;;;1.30;;
72235;SDS011;60146;52.498;13.462;2023-09-30T14:20:31;3.08;;;1.00;;
72235;SDS011;60146;52.498;13.462;2023-09-30T14:22:59;5.78;;;1.10;;
72235;SDS011;60146;52.498;13.462;2023-09-30T14:25:27;4.22;;;1.58;;
72235;SDS011;60146;52.498;13.462;2023-09-30T14:27:52;7.53;;;1.30;;
72235;SDS011;60146;52.498;13.462;2023-09-30T14:30:18;5.22;;;1.27;;
72235;SDS011;60146;52.498;13.462;2023-09-30T14:32:45;4.07;;;1.52;;
72235;SDS011;60146;52.498;13.462;2023-09-30T14:35:10;5.75;;;1.65;;
72235;SDS011;60146;52.498;13.462;2023-09-30T14:37:36;4.82;;;1.17;;
72235;SDS011;60146;52.498;13.462;2023-09-30T14:40:01;3.53;;;1.05;;
72235;SDS011;60146;52.498;13.462;2023-09-30T14:42:30;2.42;;;1.02;;
72235;SDS011;60146;52.498;13.462;2023-09-30T14:44:56;4.75;;;1.20;;
72235;SDS011;60146;52.498;13.462;2023-09-30T14:47:21;5.18;;;1.00;;
72235;SDS011;60146;52.498;13.462;2023-09-30T14:49:47;3.38;;;0.95;;
72235;SDS011;60146;52.498;13.462;2023-09-30T14:52:12;4.35;;;1.08;;
72235;SDS011;60146;52.498;13.462;2023-09-30T14:54:39;6.10;;;1.20;;
72235;SDS011;60146;52.498;13.462;2023-09-30T14:57:04;3.85;;;0.75;;
72235;SDS011;60146;52.498;13.462;2023-09-30T14:59:32;3.42;;;1.10;;
72235;SDS011;60146;52.498;13.462;2023-09-30T15:01:58;4.35;;;1.00;;